Time;durP1;ratioP1;P1;durP2;ratioP2;P2;SDS_P1;SDS_P2;PMS_P1;PMS_P2;Temp;Humidity;BMP_temperature;BMP_pressure;BME280_temperature;BME280_humidity;BME280_pressure;Samples;Min_cycle;Max_cycle;Signal;HPM_P1;HPM_P2
2023/01/10 00:00:41;;;;;;;;;2.00;2.00;;;;;-147.17;100.00;-15917.19;5048386;28;52421;-58
2023/01/10 00:03:09;;;;;;;;;2.00;1.00;;;;;-147.17;100.00;-15917.19;5046807;28;51419;-58
2023/01/10 00:05:36;;;;;;;;;3.25;2.00;;;;;-147.17;100.00;-15917.19;5051445;28;51389;-58
2023/01/10 00:08:02;;;;;;;;;5.00;2.00;;;;;-147.17;100.00;-15917.19;5046179;28;51275;-58
2023/01/10 00:10:30;;;;;;;;;2.00;2.00;;;;;-147.17;100.00;-15917.19;5045547;28;52067;-57
2023/01/10 00:15:39;;;;;;;;;4.00;2.00;;;;;-147.17;100.00;-15917.19;5046188;28;51339;-57
2023/01/10 00:18:05;;;;;;;;;3.00;2.00;;;;;-147.17;100.00;-15917.19;5052490;27;51408;-58
2023/01/10 00:20:31;;;;;;;;;5.00;5.00;;;;;-147.17;100.00;-15917.19;5053215;27;51446;-57
2023/01/10 00:22:57;;;;;;;;;1.75;1.50;;;;;-147.17;100.00;-15917.19;5051780;28;53509;-58
2023/01/10 00:25:22;;;;;;;;;0.00;0.00;;;;;-147.17;100.00;-15917.19;5049091;27;51126;-58
2023/01/10 00:27:50;;;;;;;;;2.50;2.00;;;;;-147.17;100.00;-15917.19;5052066;28;51190;-58
2023/01/10 00:30:16;;;;;;;;;7.50;3.00;;;;;-147.17;100.00;-15917.19;5050850;28;52162;-59
2023/01/10 00:32:42;;;;;;;;;5.75;3.50;;;;;-147.17;100.00;-15917.19;5044766;28;51258;-58
2023/01/10 00:35:10;;;;;;;;;1.50;1.00;;;;;-147.17;100.00;-15917.19;5047882;28;51195;-58
2023/01/10 00:37:36;;;;;;;;;3.50;2.75;;;;;-147.17;100.00;-15917.19;5052273;28;51476;-58
2023/01/10 00:40:02;;;;;;;;;0.75;0.50;;;;;-147.17;100.00;-15917.19;5049198;28;53049;-58
2023/01/10 00:45:11;;;;;;;;;2.00;1.00;;;;;-147.17;100.00;-15917.19;5049149;28;51050;-58
2023/01/10 00:47:37;;;;;;;;;3.50;1.25;;;;;-147.17;100.00;-15917.19;5051183;28;51410;-59
2023/01/10 00:50:04;;;;;;;;;6.00;5.00;;;;;-147.17;100.00;-15917.19;5051430;28;51604;-57
2023/01/10 00:52:30;;;;;;;;;4.25;2.75;;;;;-147.17;100.00;-15917.19;5044504;28;51283;-58
2023/01/10 00:54:55;;;;;;;;;2.00;2.00;;;;;-147.17;100.00;-15917.19;5051236;28;51268;-58
2023/01/10 00:57:21;;;;;;;;;2.50;2.00;;;;;-147.17;100.00;-15917.19;5048291;28;52164;-58
2023/01/10 00:59:46;;;;;;;;;4.50;2.00;;;;;-147.17;100.00;-15917.19;5047990;28;51106;-59
2023/01/10 01:02:12;;;;;;;;;9.50;4.50;;;;;-147.17;100.00;-15917.19;5048808;28;51988;-58
2023/01/10 01:04:37;;;;;;;;;2.50;2.00;;;;;-147.17;100.00;-15917.19;5050989;28;51123;-58
2023/01/10 01:07:02;;;;;;;;;4.00;3.00;;;;;-147.17;100.00;-15917.19;5050160;28;51985;-58
2023/01/10 01:09:31;;;;;;;;;2.25;2.25;;;;;-147.17;100.00;-15917.19;5047976;28;51798;-58
2023/01/10 01:11:56;;;;;;;;;5.00;3.00;;;;;-147.17;100.00;-15917.19;5045878;28;51223;-58
2023/01/10 01:14:23;;;;;;;;;2.75;2.00;;;;;-147.17;100.00;-15917.19;5047686;28;51590;-58
2023/01/10 01:16:49;;;;;;;;;3.00;2.00;;;;;-147.17;100.00;-15917.19;5049690;28;51136;-58
2023/01/10 01:19:14;;;;;;;;;2.00;2.00;;;;;-147.17;100.00;-15917.19;5048537;27;52029;-58
2023/01/10 01:21:40;;;;;;;;;2.00;2.00;;;;;-147.17;100.00;-15917.19;5044259;28;51032;-59
2023/01/10 01:24:08;;;;;;;;;2.00;1.00;;;;;-147.17;100.00;-15917.19;5049375;28;51253;-58
2023/01/10 01:26:34;;;;;;;;;1.75;1.75;;;;;-147.17;100.00;-15917.19;5052759;28;51982;-57
2023/01/10 01:28:59;;;;;;;;;1.00;1.00;;;;;-147.17;100.00;-15917.19;5048024;28;51891;-58
2023/01/10 01:31:25;;;;;;;;;3.00;2.50;;;;;-147.17;100.00;-15917.19;5045871;28;51948;-58
2023/01/10 01:33:50;;;;;;;;;1.75;1.75;;;;;-147.17;100.00;-15917.19;5049291;28;51211;-59
2023/01/10 01:36:15;;;;;;;;;5.00;3.50;;;;;-147.17;100.00;-15917.19;5048537;28;52007;-58
2023/01/10 01:38:41;;;;;;;;;2.25;2.00;;;;;-147.17;100.00;-15917.19;5048607;28;51771;-57
2023/01/10 01:41:55;;;;;;;;;2.75;1.75;;;;;-147.17;100.00;-15917.19;5047076;28;51848;-58
2023/01/10 01:44:02;;;;;;;;;1.75;1.50;;;;;-147.17;100.00;-15917.19;5050591;28;51463;-57
2023/01/10 01:46:28;;;;;;;;;2.00;1.75;;;;;-147.17;100.00;-15917.19;5045920;28;51200;-57
2023/01/10 01:48:53;;;;;;;;;1.75;1.50;;;;;-147.17;100.00;-15917.19;5047036;28;51951;-57
2023/01/10 01:51:24;;;;;;;;;2.25;1.75;;;;;-147.17;100.00;-15917.19;5045446;28;51362;-57
2023/01/10 01:54:06;;;;;;;;;1.00;1.00;;;;;-147.17;100.00;-15917.19;5049157;27;51360;-57
2023/01/10 01:56:41;;;;;;;;;3.50;1.75;;;;;-147.17;100.00;-15917.19;5047436;28;51283;-57
2023/01/10 01:59:41;;;;;;;;;4.50;3.00;;;;;-147.17;100.00;-15917.19;5052366;28;53389;-58
2023/01/10 02:02:20;;;;;;;;;2.50;2.50;;;;;-147.17;100.00;-15917.19;5048496;28;52440;-58
2023/01/10 02:05:01;;;;;;;;;3.50;3.00;;;;;-147.17;100.00;-15917.19;5052296;28;51046;-57
2023/01/10 02:07:30;;;;;;;;;4.25;2.75;;;;;-147.17;100.00;-15917.19;5047822;28;51124;-58
2023/01/10 02:09:59;;;;;;;;;4.00;3.00;;;;;-147.17;100.00;-15917.19;5050270;28;51951;-58
2023/01/10 02:12:28;;;;;;;;;5.75;4.50;;;;;-147.17;100.00;-15917.19;5046833;28;52612;-58
2023/01/10 02:14:53;;;;;;;;;5.25;5.00;;;;;-147.17;100.00;-15917.19;5054586;28;51176;-58
2023/01/10 02:17:19;;;;;;;;;2.50;2.50;;;;;-147.17;100.00;-15917.19;5041488;28;50930;-58
2023/01/10 02:20:04;;;;;;;;;2.00;1.00;;;;;-147.17;100.00;-15917.19;5058492;28;51689;-58
2023/01/10 02:23:00;;;;;;;;;1.00;1.00;;;;;-147.17;100.00;-15917.19;5058954;28;51425;-59
2023/01/10 02:25:41;;;;;;;;;2.25;1.25;;;;;-147.17;100.00;-15917.19;5045432;28;51255;-58
2023/01/10 02:28:19;;;;;;;;;1.75;1.00;;;;;-147.17;100.00;-15917.19;5056911;28;51142;-58
2023/01/10 02:31:05;;;;;;;;;1.50;1.00;;;;;-147.17;100.00;-15917.19;5049890;28;52012;-57
2023/01/10 02:33:40;;;;;;;;;3.25;1.75;;;;;-147.17;100.00;-15917.19;5051239;28;51179;-58
2023/01/10 02:36:47;;;;;;;;;5.25;2.75;;;;;-147.17;100.00;-15917.19;5064941;28;51081;-58
2023/01/10 02:39:27;;;;;;;;;2.50;1.00;;;;;-147.17;100.00;-15917.19;5046160;28;51184;-59
2023/01/10 02:42:11;;;;;;;;;1.00;0.75;;;;;-147.17;100.00;-15917.19;5053425;28;51259;-58
2023/01/10 02:44:51;;;;;;;;;1.00;1.00;;;;;-147.17;100.00;-15917.19;5050724;28;51153;-58
2023/01/10 02:47:16;;;;;;;;;0.75;0.75;;;;;-147.17;100.00;-15917.19;5057269;28;51165;-58
2023/01/10 02:49:47;;;;;;;;;1.00;1.00;;;;;-147.17;100.00;-15917.19;5059457;27;51322;-58
2023/01/10 02:52:18;;;;;;;;;1.00;1.00;;;;;-147.17;100.00;-15917.19;5049897;28;51160;-58
2023/01/10 02:54:44;;;;;;;;;1.00;1.00;;;;;-147.17;100.00;-15917.19;5046870;28;51275;-58
2023/01/10 02:57:34;;;;;;;;;1.00;1.00;;;;;-147.17;100.00;-15917.19;5062066;28;51280;-57
2023/01/10 03:00:17;;;;;;;;;0.50;0.25;;;;;-147.17;100.00;-15917.19;5045316;28;51115;-57
2023/01/10 03:02:57;;;;;;;;;3.50;2.00;;;;;-147.17;100.00;-15917.19;5032550;28;52064;-58
2023/01/10 03:05:42;;;;;;;;;1.50;1.25;;;;;-147.17;100.00;-15917.19;5055982;28;51054;-58
2023/01/10 03:08:28;;;;;;;;;1.50;1.00;;;;;-147.17;100.00;-15917.19;5042990;28;51129;-57
2023/01/10 03:10:59;;;;;;;;;3.00;1.00;;;;;-147.17;100.00;-15917.19;5057447;28;51164;-57
2023/01/10 03:13:40;;;;;;;;;3.00;2.00;;;;;-147.17;100.00;-15917.19;5061897;28;51226;-57
2023/01/10 03:16:12;;;;;;;;;3.00;1.50;;;;;-147.17;100.00;-15917.19;5058322;28;50945;-57
2023/01/10 03:18:43;;;;;;;;;2.00;1.50;;;;;-147.17;100.00;-15917.19;5051842;28;51104;-59
2023/01/10 03:21:10;;;;;;;;;2.00;1.00;;;;;-147.17;100.00;-15917.19;5057064;28;51197;-57
2023/01/10 03:23:37;;;;;;;;;3.00;1.25;;;;;-147.17;100.00;-15917.19;5063182;27;51023;-58
2023/01/10 03:26:05;;;;;;;;;2.50;2.00;;;;;-147.17;100.00;-15917.19;5056664;28;50914;-58
2023/01/10 03:28:37;;;;;;;;;5.00;2.00;;;;;-147.17;100.00;-15917.19;5044151;28;51164;-58
2023/01/10 03:31:12;;;;;;;;;2.75;1.75;;;;;-147.17;100.00;-15917.19;5062689;28;51232;-58
2023/01/10 03:33:40;;;;;;;;;2.75;1.00;;;;;-147.17;100.00;-15917.19;5062492;27;53183;-58
2023/01/10 03:36:46;;;;;;;;;1.00;1.00;;;;;-147.17;100.00;-15917.19;5060791;28;51004;-58
2023/01/10 03:39:29;;;;;;;;;4.75;3.00;;;;;-147.17;100.00;-15917.19;5061533;27;51219;-58
2023/01/10 03:42:06;;;;;;;;;1.75;1.75;;;;;-147.17;100.00;-15917.19;5063283;27;51457;-58
2023/01/10 03:44:50;;;;;;;;;1.00;1.00;;;;;-147.17;100.00;-15917.19;5073029;27;54403;-57
2023/01/10 03:47:37;;;;;;;;;1.00;1.00;;;;;-147.17;100.00;-15917.19;5066793;28;51123;-58
2023/01/10 03:50:11;;;;;;;;;2.00;1.50;;;;;-147.17;100.00;-15917.19;5055279;27;51123;-62
2023/01/10 03:52:39;;;;;;;;;1.25;1.00;;;;;-147.17;100.00;-15917.19;5050769;28;51201;-59
2023/01/10 03:55:06;;;;;;;;;4.50;2.00;;;;;-147.17;100.00;-15917.19;5067707;27;51314;-58
2023/01/10 03:57:32;;;;;;;;;0.25;0.25;;;;;-147.17;100.00;-15917.19;5064738;28;51301;-58
2023/01/10 03:59:58;;;;;;;;;2.00;1.50;;;;;-147.17;100.00;-15917.19;5063781;27;51180;-59
2023/01/10 04:02:27;;;;;;;;;2.75;1.75;;;;;-147.17;100.00;-15917.19;5079350;27;51541;-58
2023/01/10 04:04:52;;;;;;;;;2.75;1.50;;;;;-147.17;100.00;-15917.19;5059418;27;51855;-58
2023/01/10 04:07:17;;;;;;;;;2.00;1.50;;;;;-147.17;100.00;-15917.19;5062861;28;51071;-58
2023/01/10 04:09:43;;;;;;;;;5.00;2.00;;;;;-147.17;100.00;-15917.19;5065778;27;51096;-58
2023/01/10 04:12:08;;;;;;;;;3.00;3.00;;;;;-147.17;100.00;-15917.19;5064751;27;51380;-58
2023/01/10 04:14:34;;;;;;;;;1.25;1.25;;;;;-147.17;100.00;-15917.19;5059314;28;51764;-58
2023/01/10 04:16:59;;;;;;;;;1.50;1.25;;;;;-147.17;100.00;-15917.19;5071575;28;51125;-58
2023/01/10 04:19:25;;;;;;;;;1.75;1.25;;;;;-147.17;100.00;-15917.19;5057616;28;51096;-58
2023/01/10 04:21:50;;;;;;;;;1.00;1.00;;;;;-147.17;100.00;-15917.19;5072679;28;51322;-58
2023/01/10 04:24:16;;;;;;;;;2.00;1.00;;;;;-147.17;100.00;-15917.19;5057929;27;51833;-58
2023/01/10 04:26:41;;;;;;;;;1.00;1.00;;;;;-147.17;100.00;-15917.19;5060079;28;50960;-58
2023/01/10 04:29:06;;;;;;;;;2.00;1.50;;;;;-147.17;100.00;-15917.19;5062920;27;51129;-58
2023/01/10 04:31:32;;;;;;;;;1.25;1.25;;;;;-147.17;100.00;-15917.19;5063966;28;51120;-57
2023/01/10 04:33:57;;;;;;;;;3.50;2.25;;;;;-147.17;100.00;-15917.19;5068586;28;51811;-58
2023/01/10 04:36:23;;;;;;;;;2.25;1.25;;;;;-147.17;100.00;-15917.19;5061432;28;50999;-58
2023/01/10 04:38:48;;;;;;;;;2.25;2.25;;;;;-147.17;100.00;-15917.19;5066629;27;50885;-58
2023/01/10 04:41:13;;;;;;;;;2.00;2.00;;;;;-147.17;100.00;-15917.19;5069945;28;51059;-58
2023/01/10 04:43:39;;;;;;;;;5.00;2.00;;;;;-147.17;100.00;-15917.19;5061386;28;51000;-57
2023/01/10 04:46:04;;;;;;;;;2.75;2.50;;;;;-147.17;100.00;-15917.19;5057287;28;51260;-58
2023/01/10 04:48:29;;;;;;;;;4.00;2.50;;;;;-147.17;100.00;-15917.19;5063497;27;51117;-58
2023/01/10 04:50:55;;;;;;;;;3.00;2.50;;;;;-147.17;100.00;-15917.19;5065737;28;51147;-58
2023/01/10 04:53:20;;;;;;;;;2.75;2.00;;;;;-147.17;100.00;-15917.19;5060006;28;51188;-57
2023/01/10 04:55:46;;;;;;;;;2.00;2.00;;;;;-147.17;100.00;-15917.19;5055341;28;51013;-57
2023/01/10 04:58:12;;;;;;;;;3.00;2.00;;;;;-147.17;100.00;-15917.19;5072269;27;51027;-58
2023/01/10 05:00:37;;;;;;;;;1.25;1.25;;;;;-147.17;100.00;-15917.19;5049323;27;51146;-58
2023/01/10 05:03:03;;;;;;;;;4.00;2.50;;;;;-147.17;100.00;-15917.19;5062572;28;53229;-58
2023/01/10 05:05:30;;;;;;;;;2.00;1.00;;;;;-147.17;100.00;-15917.19;5060807;28;51031;-58
2023/01/10 05:07:55;;;;;;;;;5.00;1.00;;;;;-147.17;100.00;-15917.19;5067997;28;51150;-58
2023/01/10 05:10:21;;;;;;;;;2.00;2.00;;;;;-147.17;100.00;-15917.19;5056559;27;51184;-58
2023/01/10 05:12:46;;;;;;;;;2.25;2.25;;;;;-147.17;100.00;-15917.19;5064639;28;51868;-58
2023/01/10 05:15:12;;;;;;;;;2.00;2.00;;;;;-147.17;100.00;-15917.19;5060735;27;50853;-58
2023/01/10 05:17:38;;;;;;;;;1.00;1.00;;;;;-147.17;100.00;-15917.19;5074356;27;51123;-58
2023/01/10 05:20:04;;;;;;;;;2.75;2.00;;;;;-147.17;100.00;-15917.19;5064511;27;51209;-58
2023/01/10 05:22:29;;;;;;;;;5.00;4.00;;;;;-147.17;100.00;-15917.19;5071669;27;52248;-58
2023/01/10 05:24:55;;;;;;;;;2.00;2.00;;;;;-147.17;100.00;-15917.19;5061282;28;51846;-58
2023/01/10 05:27:20;;;;;;;;;4.00;4.00;;;;;-147.17;100.00;-15917.19;5051528;28;51866;-59
2023/01/10 05:29:45;;;;;;;;;3.00;2.00;;;;;-147.17;100.00;-15917.19;5062989;28;51140;-59
2023/01/10 05:32:11;;;;;;;;;1.50;1.50;;;;;-147.17;100.00;-15917.19;5056918;27;51200;-59
2023/01/10 05:34:36;;;;;;;;;1.75;1.75;;;;;-147.17;100.00;-15917.19;5055203;28;51032;-59
2023/01/10 05:37:01;;;;;;;;;2.75;2.00;;;;;-147.17;100.00;-15917.19;5063964;28;51538;-58
2023/01/10 05:39:27;;;;;;;;;4.00;2.50;;;;;-147.17;100.00;-15917.19;5069340;27;51359;-57
2023/01/10 05:41:52;;;;;;;;;2.00;2.00;;;;;-147.17;100.00;-15917.19;5073338;27;51012;-59
2023/01/10 05:44:17;;;;;;;;;5.25;2.25;;;;;-147.17;100.00;-15917.19;5066289;27;51101;-57
2023/01/10 05:46:43;;;;;;;;;5.00;3.00;;;;;-147.17;100.00;-15917.19;5061494;28;51284;-60
2023/01/10 05:49:08;;;;;;;;;8.00;4.75;;;;;-147.17;100.00;-15917.19;5064547;27;51172;-58
2023/01/10 05:51:34;;;;;;;;;5.00;3.00;;;;;-147.17;100.00;-15917.19;5064896;27;52552;-58
2023/01/10 05:53:59;;;;;;;;;2.00;1.50;;;;;-147.17;100.00;-15917.19;5068812;28;50859;-58
2023/01/10 05:56:25;;;;;;;;;2.50;2.00;;;;;-147.17;100.00;-15917.19;5051993;27;51658;-58
2023/01/10 05:58:50;;;;;;;;;3.50;2.75;;;;;-147.17;100.00;-15917.19;5046446;28;50885;-58
2023/01/10 06:01:16;;;;;;;;;2.75;2.00;;;;;-147.17;100.00;-15917.19;5065081;27;51903;-58
2023/01/10 06:03:42;;;;;;;;;10.00;9.50;;;;;-147.17;100.00;-15917.19;5071245;27;51068;-58
2023/01/10 06:06:08;;;;;;;;;13.50;11.75;;;;;-147.17;100.00;-15917.19;5052085;28;50995;-59
2023/01/10 06:08:35;;;;;;;;;5.75;4.50;;;;;-147.17;100.00;-15917.19;5066821;28;51262;-59
2023/01/10 06:11:01;;;;;;;;;6.00;3.00;;;;;-147.17;100.00;-15917.19;5053691;28;51845;-60
2023/01/10 06:13:26;;;;;;;;;2.75;2.50;;;;;-147.17;100.00;-15917.19;5052290;28;51137;-58
2023/01/10 06:15:52;;;;;;;;;5.00;3.00;;;;;-147.17;100.00;-15917.19;5056537;28;51152;-58
2023/01/10 06:18:17;;;;;;;;;6.00;3.00;;;;;-147.17;100.00;-15917.19;5061562;28;51382;-58
2023/01/10 06:20:43;;;;;;;;;3.00;3.00;;;;;-147.17;100.00;-15917.19;5071212;27;52109;-59
2023/01/10 06:23:09;;;;;;;;;3.00;3.00;;;;;-147.17;100.00;-15917.19;5073467;27;51111;-59
2023/01/10 06:25:39;;;;;;;;;3.50;3.00;;;;;-147.17;100.00;-15917.19;5056174;28;51406;-58
2023/01/10 06:28:05;;;;;;;;;4.00;2.50;;;;;-147.17;100.00;-15917.19;5063117;28;51231;-58
2023/01/10 06:30:30;;;;;;;;;6.50;4.00;;;;;-147.17;100.00;-15917.19;5051200;27;51145;-58
2023/01/10 06:33:03;;;;;;;;;5.00;3.00;;;;;-147.17;100.00;-15917.19;5065073;28;51049;-58
2023/01/10 06:35:29;;;;;;;;;5.25;3.00;;;;;-147.17;100.00;-15917.19;5051958;27;51140;-59
2023/01/10 06:37:55;;;;;;;;;3.50;3.50;;;;;-147.17;100.00;-15917.19;5053716;28;51073;-58
2023/01/10 06:40:20;;;;;;;;;3.00;1.00;;;;;-147.17;100.00;-15917.19;5052570;27;52616;-57
2023/01/10 06:42:46;;;;;;;;;5.25;5.00;;;;;-147.17;100.00;-15917.19;5058025;28;51125;-59
2023/01/10 06:45:11;;;;;;;;;6.00;2.50;;;;;-147.17;100.00;-15917.19;5072314;28;51320;-59
2023/01/10 06:47:37;;;;;;;;;4.00;2.00;;;;;-147.17;100.00;-15917.19;5053638;27;51461;-58
2023/01/10 06:50:03;;;;;;;;;6.75;5.75;;;;;-147.17;100.00;-15917.19;5053802;28;51213;-58
2023/01/10 06:52:29;;;;;;;;;17.25;13.25;;;;;-147.17;100.00;-15917.19;5080855;27;50990;-58
2023/01/10 06:54:54;;;;;;;;;6.25;5.00;;;;;-147.17;100.00;-15917.19;5058812;28;51001;-59
2023/01/10 06:57:20;;;;;;;;;5.75;5.50;;;;;-147.17;100.00;-15917.19;5052186;28;50993;-58
2023/01/10 06:59:45;;;;;;;;;7.00;6.75;;;;;-147.17;100.00;-15917.19;5070192;28;50898;-59
2023/01/10 07:02:11;;;;;;;;;6.00;5.50;;;;;-147.17;100.00;-15917.19;5055401;27;51026;-59
2023/01/10 07:04:36;;;;;;;;;6.00;4.50;;;;;-147.17;100.00;-15917.19;5044705;28;51214;-58
2023/01/10 07:07:02;;;;;;;;;2.50;2.00;;;;;-147.17;100.00;-15917.19;5052026;28;51153;-57
2023/01/10 07:09:27;;;;;;;;;5.00;4.00;;;;;-147.17;100.00;-15917.19;5062335;28;51599;-59
2023/01/10 07:11:53;;;;;;;;;4.75;3.50;;;;;-147.17;100.00;-15917.19;5059342;28;51055;-58
2023/01/10 07:14:18;;;;;;;;;6.75;5.75;;;;;-147.17;100.00;-15917.19;5046053;28;51293;-58
2023/01/10 07:16:44;;;;;;;;;6.00;5.75;;;;;-147.17;100.00;-15917.19;5057417;28;51358;-58
2023/01/10 07:19:12;;;;;;;;;6.25;5.25;;;;;-147.17;100.00;-15917.19;5070591;28;51718;-59
2023/01/10 07:21:37;;;;;;;;;10.00;6.75;;;;;-147.17;100.00;-15917.19;5074410;27;51361;-58
2023/01/10 07:24:03;;;;;;;;;2.25;2.25;;;;;-147.17;100.00;-15917.19;5056995;28;51279;-60
2023/01/10 07:26:29;;;;;;;;;5.50;4.50;;;;;-147.17;100.00;-15917.19;5051931;28;51397;-58
2023/01/10 07:28:54;;;;;;;;;6.00;5.00;;;;;-147.17;100.00;-15917.19;5060531;28;52047;-58
2023/01/10 07:31:22;;;;;;;;;5.00;4.50;;;;;-147.17;100.00;-15917.19;5050960;28;51221;-57
2023/01/10 07:33:49;;;;;;;;;7.00;6.50;;;;;-147.17;100.00;-15917.19;5064601;28;51296;-58
2023/01/10 07:36:15;;;;;;;;;5.00;5.00;;;;;-147.17;100.00;-15917.19;5063902;28;51337;-58
2023/01/10 07:38:41;;;;;;;;;6.75;6.00;;;;;-147.17;100.00;-15917.19;5071563;28;52003;-58
2023/01/10 07:41:06;;;;;;;;;8.00;6.00;;;;;-147.17;100.00;-15917.19;5045300;28;51022;-58
2023/01/10 07:43:32;;;;;;;;;10.50;10.00;;;;;-147.17;100.00;-15917.19;5071055;28;51074;-58
2023/01/10 07:45:59;;;;;;;;;6.75;6.00;;;;;-147.17;100.00;-15917.19;5075624;27;51385;-60
2023/01/10 07:48:24;;;;;;;;;7.00;6.25;;;;;-147.17;100.00;-15917.19;5074462;27;51793;-58
2023/01/10 07:50:54;;;;;;;;;3.00;2.00;;;;;-147.17;100.00;-15917.19;5058456;28;51219;-58
2023/01/10 07:53:20;;;;;;;;;5.50;5.50;;;;;-147.17;100.00;-15917.19;5063738;28;51191;-60
2023/01/10 07:55:45;;;;;;;;;6.00;5.75;;;;;-147.17;100.00;-15917.19;5050396;28;51248;-58
2023/01/10 07:58:10;;;;;;;;;5.75;5.75;;;;;-147.17;100.00;-15917.19;5069112;28;51219;-57
2023/01/10 08:00:36;;;;;;;;;5.00;4.50;;;;;-147.17;100.00;-15917.19;5075361;27;51107;-58
2023/01/10 08:03:01;;;;;;;;;6.25;5.50;;;;;-147.17;100.00;-15917.19;5056130;27;51391;-59
2023/01/10 08:05:27;;;;;;;;;6.00;6.00;;;;;-147.17;100.00;-15917.19;5055129;28;51179;-59
2023/01/10 08:07:54;;;;;;;;;7.00;6.50;;;;;-147.17;100.00;-15917.19;5074834;28;51999;-59
2023/01/10 08:10:19;;;;;;;;;6.00;5.50;;;;;-147.17;100.00;-15917.19;5069703;28;51255;-58
2023/01/10 08:12:47;;;;;;;;;4.50;3.00;;;;;-147.17;100.00;-15917.19;5049013;28;51360;-58
2023/01/10 08:15:12;;;;;;;;;2.75;2.75;;;;;-147.17;100.00;-15917.19;5058322;28;51397;-60
2023/01/10 08:17:37;;;;;;;;;3.00;2.00;;;;;-147.17;100.00;-15917.19;5074757;27;51125;-58
2023/01/10 08:20:03;;;;;;;;;6.50;6.50;;;;;-147.17;100.00;-15917.19;5075234;27;51051;-59
2023/01/10 08:22:29;;;;;;;;;7.25;6.25;;;;;-147.17;100.00;-15917.19;5067073;27;51145;-59
2023/01/10 08:24:54;;;;;;;;;5.00;5.00;;;;;-147.17;100.00;-15917.19;5058644;28;51362;-59
2023/01/10 08:27:19;;;;;;;;;8.25;6.75;;;;;-147.17;100.00;-15917.19;5056244;28;51231;-59
2023/01/10 08:29:45;;;;;;;;;7.25;6.75;;;;;-147.17;100.00;-15917.19;5059727;28;50990;-59
2023/01/10 08:32:10;;;;;;;;;6.00;6.00;;;;;-147.17;100.00;-15917.19;5059964;27;51298;-58
2023/01/10 08:34:36;;;;;;;;;6.25;5.00;;;;;-147.17;100.00;-15917.19;5047613;28;51049;-58
2023/01/10 08:37:01;;;;;;;;;6.75;5.00;;;;;-147.17;100.00;-15917.19;5057721;28;52232;-58
2023/01/10 08:39:29;;;;;;;;;10.00;6.00;;;;;-147.17;100.00;-15917.19;5065223;27;51131;-59
2023/01/10 08:41:55;;;;;;;;;6.00;6.00;;;;;-147.17;100.00;-15917.19;5064910;28;51207;-59
2023/01/10 08:44:20;;;;;;;;;8.00;6.00;;;;;-147.17;100.00;-15917.19;5045026;28;51239;-58
2023/01/10 08:46:46;;;;;;;;;7.00;7.00;;;;;-147.17;100.00;-15917.19;5063064;27;51001;-59
2023/01/10 08:49:12;;;;;;;;;10.00;10.00;;;;;-147.17;100.00;-15917.19;5065290;28;51006;-58
2023/01/10 08:51:37;;;;;;;;;8.50;7.50;;;;;-147.17;100.00;-15917.19;5056717;27;51089;-58
2023/01/10 08:54:03;;;;;;;;;7.00;7.00;;;;;-147.17;100.00;-15917.19;5050470;28;51338;-58
2023/01/10 08:56:29;;;;;;;;;7.25;6.75;;;;;-147.17;100.00;-15917.19;5057139;28;51406;-59
2023/01/10 08:58:55;;;;;;;;;11.75;11.25;;;;;-147.17;100.00;-15917.19;5051964;27;56963;-58
2023/01/10 09:01:21;;;;;;;;;6.75;6.25;;;;;-147.17;100.00;-15917.19;5042787;28;51217;-59
2023/01/10 09:03:47;;;;;;;;;10.50;8.00;;;;;-147.17;100.00;-15917.19;5046230;28;51345;-58
2023/01/10 09:06:12;;;;;;;;;8.75;7.00;;;;;-147.17;100.00;-15917.19;5029542;28;54005;-60
2023/01/10 09:08:37;;;;;;;;;8.00;8.00;;;;;-147.17;100.00;-15917.19;5056915;28;50975;-59
2023/01/10 09:11:04;;;;;;;;;7.25;5.50;;;;;-147.17;100.00;-15917.19;5051279;28;51211;-59
2023/01/10 09:13:30;;;;;;;;;6.50;5.50;;;;;-147.17;100.00;-15917.19;5053034;28;51383;-59
2023/01/10 09:15:56;;;;;;;;;7.50;6.50;;;;;-147.17;100.00;-15917.19;5049601;28;51852;-57
2023/01/10 09:18:25;;;;;;;;;10.50;9.00;;;;;-147.17;100.00;-15917.19;5049066;28;51307;-58
2023/01/10 09:20:51;;;;;;;;;3.50;2.25;;;;;-147.17;100.00;-15917.19;5054457;28;51304;-57
2023/01/10 09:23:19;;;;;;;;;7.50;7.50;;;;;-147.17;100.00;-15917.19;5045750;28;51643;-57
2023/01/10 09:25:49;;;;;;;;;7.00;6.50;;;;;-147.17;100.00;-15917.19;5068579;28;52787;-57
2023/01/10 09:28:15;;;;;;;;;9.75;8.00;;;;;-147.17;100.00;-15917.19;5039293;28;51170;-58
2023/01/10 09:30:41;;;;;;;;;7.75;7.75;;;;;-147.17;100.00;-15917.19;5062877;28;51230;-58
2023/01/10 09:33:07;;;;;;;;;10.00;9.50;;;;;-147.17;100.00;-15917.19;5055914;28;52264;-58
2023/01/10 09:35:35;;;;;;;;;9.75;9.75;;;;;-147.17;100.00;-15917.19;5057619;28;52093;-58
2023/01/10 09:38:02;;;;;;;;;6.75;6.50;;;;;-147.17;100.00;-15917.19;5045473;28;51564;-58
2023/01/10 09:40:27;;;;;;;;;8.00;7.75;;;;;-147.17;100.00;-15917.19;5056190;28;51238;-59
2023/01/10 09:43:04;;;;;;;;;6.75;6.00;;;;;-147.17;100.00;-15917.19;5048576;28;51126;-59
2023/01/10 09:45:47;;;;;;;;;4.75;4.75;;;;;-147.17;100.00;-15917.19;5038552;28;53634;-58
2023/01/10 09:48:29;;;;;;;;;8.00;8.00;;;;;-147.17;100.00;-15917.19;5048926;28;51359;-58
2023/01/10 09:51:23;;;;;;;;;8.50;7.75;;;;;-147.17;100.00;-15917.19;5040262;28;51203;-58
2023/01/10 09:53:53;;;;;;;;;6.00;6.00;;;;;-147.17;100.00;-15917.19;5043626;28;51377;-59
2023/01/10 09:56:18;;;;;;;;;8.50;8.50;;;;;-147.17;100.00;-15917.19;5042721;28;51946;-58
2023/01/10 09:58:45;;;;;;;;;7.75;7.00;;;;;-147.17;100.00;-15917.19;5046329;28;51514;-59
2023/01/10 10:01:21;;;;;;;;;10.50;9.00;;;;;-147.17;100.00;-15917.19;5052271;28;51145;-59
2023/01/10 10:03:56;;;;;;;;;9.25;8.00;;;;;-147.17;100.00;-15917.19;5051335;28;51080;-59
2023/01/10 10:06:22;;;;;;;;;10.00;9.50;;;;;-147.17;100.00;-15917.19;5062129;28;51846;-59
2023/01/10 10:08:49;;;;;;;;;6.50;6.50;;;;;-147.17;100.00;-15917.19;5042055;28;51264;-58
2023/01/10 10:11:26;;;;;;;;;10.75;7.50;;;;;-147.17;100.00;-15917.19;5048802;28;51314;-58
2023/01/10 10:14:13;;;;;;;;;11.00;8.00;;;;;-147.17;100.00;-15917.19;5054500;28;51100;-58
2023/01/10 10:17:06;;;;;;;;;9.25;7.00;;;;;-147.17;100.00;-15917.19;5062257;27;51132;-61
2023/01/10 10:19:56;;;;;;;;;8.25;7.00;;;;;-147.17;100.00;-15917.19;5044390;28;51022;-59
2023/01/10 10:22:51;;;;;;;;;7.50;7.50;;;;;-147.17;100.00;-15917.19;5042727;28;51247;-59
2023/01/10 10:25:41;;;;;;;;;8.00;7.00;;;;;-147.17;100.00;-15917.19;5073127;28;51012;-59
2023/01/10 10:28:15;;;;;;;;;10.00;7.75;;;;;-147.17;100.00;-15917.19;5073156;27;51797;-59
2023/01/10 10:31:00;;;;;;;;;6.00;4.25;;;;;-147.17;100.00;-15917.19;5073711;27;50997;-59
2023/01/10 10:33:38;;;;;;;;;6.00;6.00;;;;;-147.17;100.00;-15917.19;5069226;28;51147;-59
2023/01/10 10:36:14;;;;;;;;;8.75;7.50;;;;;-147.17;100.00;-15917.19;5073085;27;51158;-59
2023/01/10 10:38:45;;;;;;;;;6.00;5.50;;;;;-147.17;100.00;-15917.19;5072846;27;51321;-58
2023/01/10 10:41:21;;;;;;;;;7.00;6.00;;;;;-147.17;100.00;-15917.19;5088865;27;50949;-59
2023/01/10 10:43:48;;;;;;;;;10.50;9.50;;;;;-147.17;100.00;-15917.19;5088131;27;51051;-58
2023/01/10 10:46:18;;;;;;;;;7.50;6.50;;;;;-147.17;100.00;-15917.19;5072892;27;51076;-60
2023/01/10 10:48:49;;;;;;;;;3.75;3.00;;;;;-147.17;100.00;-15917.19;5072775;27;52039;-59
2023/01/10 10:51:41;;;;;;;;;6.75;6.00;;;;;-147.17;100.00;-15917.19;5070678;28;51032;-59
2023/01/10 10:54:11;;;;;;;;;8.00;7.75;;;;;-147.17;100.00;-15917.19;5072795;28;51086;-58
2023/01/10 10:56:36;;;;;;;;;7.00;6.00;;;;;-147.17;100.00;-15917.19;5061172;28;51085;-59
2023/01/10 10:59:03;;;;;;;;;10.25;10.00;;;;;-147.17;100.00;-15917.19;5056770;28;50993;-59
2023/01/10 11:01:29;;;;;;;;;7.75;7.50;;;;;-147.17;100.00;-15917.19;5050393;27;51149;-59
2023/01/10 11:04:01;;;;;;;;;6.00;6.00;;;;;-147.17;100.00;-15917.19;5061015;28;51150;-59
2023/01/10 11:06:29;;;;;;;;;11.25;7.75;;;;;-147.17;100.00;-15917.19;5061023;27;51259;-58
2023/01/10 11:09:00;;;;;;;;;7.75;6.25;;;;;-147.17;100.00;-15917.19;5071204;28;51809;-59
2023/01/10 11:11:28;;;;;;;;;13.50;12.25;;;;;-147.17;100.00;-15917.19;5060370;27;51162;-59
2023/01/10 11:14:02;;;;;;;;;7.00;6.50;;;;;-147.17;100.00;-15917.19;5037470;28;51173;-58
2023/01/10 11:16:31;;;;;;;;;8.25;7.00;;;;;-147.17;100.00;-15917.19;5041256;28;51007;-59